• Join FlightAware (Why Join?)
  • Login
  • US Flag 
08:38AM EDT


 

Airport Tracker/Info


-or-


 

Live Flight TrackerFlight Track Log ✈ SKW5550 ✈ 24-Jun-2013 ✈ KCOD - KDEN

Flight Track Log - Related Links

Times and Time Zones

All times are in EDT time to prevent confusion due to time zone crossing. See the SKW5550 flight status page for this flight to view local times or setup timezone preferences in your user account.

Time Position Orientation Groundspeed Altitude Reporting Facility
EDT Latitude Longitude Course Direction KTS MPH feet Rate Location/Type
08:22AM 44.1634 -108.6910 158° South  Level FlightAware Approximate
08:23AM 44.0703 -108.6398 159° South  Level FlightAware Approximate
08:24AM 43.9771 -108.5890 159° South  Level FlightAware Approximate
08:25AM 43.8847 -108.5354 157° South  Level FlightAware Approximate
08:26AM 43.7998 -108.4859 157° South  Level FlightAware Approximate
08:26AM 44.2736 -108.7731 142° Southeast 326 375 14,800  Level Salt Lake Center
08:27AM 43.7148 -108.4369 157° South  Level FlightAware Approximate
08:27AM 44.1967 -108.7139 151° Southeast 341 392 14,900  Level Salt Lake Center
08:28AM 43.6297 -108.3883 158° South  Level FlightAware Approximate
08:29AM 43.5446 -108.3397 158° South  Level FlightAware Approximate
08:29AM 44.0863 -108.6020 148° Southeast  Level Estimated
08:30AM 43.4601 -108.2894 156° South  Level FlightAware Approximate
08:30AM 43.9742 -108.4939 148° Southeast 386 444 19,000  Level Salt Lake Center
08:31AM 43.3814 -108.2045 142° Southeast  Level Estimated
08:31AM 43.8925 -108.4178 146° Southeast 372 428 21,100  Level Salt Lake Center
08:32AM 43.7961 -108.3292 146° Southeast 367 422 22,300 1,080 Climbing Salt Lake Center
08:33AM 43.7122 -108.2494 146° Southeast 377 434 23,300 900 Climbing Salt Lake Center
08:34AM 43.6286 -108.1717 146° Southeast 379 436 24,200 840 Climbing Salt Lake Center
08:35AM 43.5283 -108.0797 146° Southeast 385 443 25,000 360 Climbing Salt Lake Center
08:36AM 43.4389 -107.9961 146° Southeast 400 460 25,000  Level Salt Lake Center
08:37AM 43.3456 -107.9122 147° Southeast 414 476 25,000  Level Salt Lake Center
08:38AM 43.2492 -107.8233 146° Southeast 430 495 25,000  Level Salt Lake Center
08:39AM 43.1347 -107.7181 146° Southeast 440 506 25,000  Level Salt Lake Center
08:40AM 43.0356 -107.6278 146° Southeast 445 512 25,000  Level Salt Lake Center
08:41AM 42.9358 -107.5372 146° Southeast 448 516 25,000  Level Salt Lake Center
08:42AM 42.8222 -107.4258 144° Southeast 450 518 25,000  Level Salt Lake Center
08:43AM 42.7258 -107.3300 144° Southeast 449 517 25,000  Level Salt Lake Center
08:44AM 42.6292 -107.2350 144° Southeast 447 514 25,000  Level Salt Lake Center
08:45AM 42.5142 -107.1233 144° Southeast 452 520 25,000  Level Salt Lake Center
08:46AM 42.4181 -107.0281 144° Southeast 450 518 25,000  Level Salt Lake Center
08:47AM 42.3197 -106.9336 145° Southeast 451 519 25,000  Level Salt Lake Center
08:48AM 42.2050 -106.8231 144° Southeast 452 520 25,000  Level Salt Lake Center
08:48AM 42.1531 -106.7750 146° Southeast 449 517 25,000  Level Denver Center
08:49AM 42.0547 -106.6819 145° Southeast 451 519 25,000  Level Denver Center
08:50AM 41.9578 -106.5892 145° Southeast 447 514 25,000  Level Denver Center
08:51AM 41.8517 -106.4889 145° Southeast 447 514 25,000  Level Denver Center
08:52AM 41.7367 -106.3814 145° Southeast 450 518 25,000  Level Denver Center
08:54AM 41.6392 -106.2889 145° Southeast 450 518 25,000  Level Denver Center
08:55AM 41.5411 -106.1978 145° Southeast 450 518 25,000  Level Denver Center
08:56AM 41.4253 -106.0900 145° Southeast 453 521 25,000  Level Denver Center
08:57AM 41.3261 -105.9986 145° Southeast 453 521 25,000  Level Denver Center
08:58AM 41.2281 -105.9081 145° Southeast 451 519 25,000  Level Denver Center
08:59AM 41.1114 -105.8000 145° Southeast 454 522 25,000  Level Denver Center
09:00AM 41.0144 -105.7117 145° Southeast 456 525 25,000  Level Denver Center
09:01AM 40.9097 -105.6158 145° Southeast 458 527 25,000 -480 Level Denver Center
09:02AM 40.8047 -105.5197 145° Southeast 459 528 24,100 -1,560 Descending Denver Center
09:03AM 40.7014 -105.4256 145° Southeast 455 524 21,900 -2,220 Descending Denver Center
09:04AM 40.5931 -105.3261 145° Southeast 398 458 19,700 -1,800 Descending Denver Center
09:05AM 40.5083 -105.2522 146° Southeast 370 426 18,300 -1,380 Descending Denver Center
09:06AM 40.4392 -105.1467 131° Southeast 388 447 17,000 -1,140 Descending Denver Center
09:07AM 40.3761 -105.0417 128° Southeast 370 426 16,000 -1,260 Descending Denver Center
09:08AM 40.3136 -104.9375 128° Southeast 362 417 14,500 -1,680 Descending Denver Center
09:09AM 40.2650 -104.8556 128° Southeast 338 389 12,700 -1,980 Descending Denver Center
09:10AM 40.1797 -104.7803 146° Southeast 296 341 10,500 -1,920 Descending Denver Center
09:11AM 40.1042 -104.7450 160° South 286 329 8,800 -1,680 Descending Denver Center
09:12AM 40.0364 -104.7131 160° South 261 300 7,100 -1,020 Descending Denver Center
09:13AM 39.9792 -104.6869 161° South 217 250 6,800 -540 Descending Denver Center
09:14AM 39.9408 -104.6867 180° South 142 163 6,100 -660 Descending Denver Center
09:15AM 39.9042 -104.6864 180° South 124 143 5,500 -420 Descending Denver Center
09:16AM 39.8756 -104.6878 182° South 124 143 5,300 -240 Descending Denver Center
09:18AM 39.8617 -104.6732 180° South  Level Estimated
09:25AM 39.8617 -104.6732 180° South  Level Estimated
09:26AM 39.8617 -104.6732 180° South  Level Estimated